sensor_id;sensor_type;location;lat;lon;timestamp;P1;durP1;ratioP1;P2;durP2;ratioP2
8100;SDS011;4093;53.470;9.832;2023-11-19T00:02:26;3.00;;;2.80;;
8100;SDS011;4093;53.470;9.832;2023-11-19T00:04:54;3.10;;;2.90;;
8100;SDS011;4093;53.470;9.832;2023-11-19T00:07:21;3.50;;;3.20;;
8100;SDS011;4093;53.470;9.832;2023-11-19T00:09:58;2.50;;;2.30;;
8100;SDS011;4093;53.470;9.832;2023-11-19T00:12:35;2.83;;;2.63;;
8100;SDS011;4093;53.470;9.832;2023-11-19T00:15:03;2.60;;;2.40;;
8100;SDS011;4093;53.470;9.832;2023-11-19T00:17:31;2.63;;;2.43;;
8100;SDS011;4093;53.470;9.832;2023-11-19T00:19:59;2.40;;;2.30;;
8100;SDS011;4093;53.470;9.832;2023-11-19T00:22:27;2.60;;;2.40;;
8100;SDS011;4093;53.470;9.832;2023-11-19T00:24:55;2.47;;;2.27;;
8100;SDS011;4093;53.470;9.832;2023-11-19T00:27:23;2.90;;;2.30;;
8100;SDS011;4093;53.470;9.832;2023-11-19T00:29:52;2.40;;;2.20;;
8100;SDS011;4093;53.470;9.832;2023-11-19T00:32:19;2.60;;;2.40;;
8100;SDS011;4093;53.470;9.832;2023-11-19T00:34:47;2.60;;;2.40;;
8100;SDS011;4093;53.470;9.832;2023-11-19T00:37:15;5.03;;;2.20;;
8100;SDS011;4093;53.470;9.832;2023-11-19T00:39:43;2.47;;;2.27;;
8100;SDS011;4093;53.470;9.832;2023-11-19T00:42:12;2.10;;;2.00;;
8100;SDS011;4093;53.470;9.832;2023-11-19T00:44:40;2.33;;;1.97;;
8100;SDS011;4093;53.470;9.832;2023-11-19T00:47:18;2.60;;;2.40;;
8100;SDS011;4093;53.470;9.832;2023-11-19T00:49:46;2.57;;;2.37;;
8100;SDS011;4093;53.470;9.832;2023-11-19T00:52:16;2.43;;;2.23;;
8100;SDS011;4093;53.470;9.832;2023-11-19T00:54:44;2.13;;;2.03;;
8100;SDS011;4093;53.470;9.832;2023-11-19T00:57:12;2.70;;;2.50;;
8100;SDS011;4093;53.470;9.832;2023-11-19T00:59:41;2.23;;;2.10;;
8100;SDS011;4093;53.470;9.832;2023-11-19T01:02:08;1.90;;;1.80;;
8100;SDS011;4093;53.470;9.832;2023-11-19T01:04:38;2.17;;;2.07;;
8100;SDS011;4093;53.470;9.832;2023-11-19T01:07:05;1.90;;;1.80;;
8100;SDS011;4093;53.470;9.832;2023-11-19T01:09:33;2.23;;;2.00;;
8100;SDS011;4093;53.470;9.832;2023-11-19T01:12:01;2.10;;;2.00;;
8100;SDS011;4093;53.470;9.832;2023-11-19T01:14:30;1.70;;;1.60;;
8100;SDS011;4093;53.470;9.832;2023-11-19T01:16:58;1.80;;;1.70;;
8100;SDS011;4093;53.470;9.832;2023-11-19T01:19:25;2.17;;;2.00;;
8100;SDS011;4093;53.470;9.832;2023-11-19T01:21:56;2.03;;;1.93;;
8100;SDS011;4093;53.470;9.832;2023-11-19T01:24:24;1.80;;;1.70;;
8100;SDS011;4093;53.470;9.832;2023-11-19T01:26:54;1.70;;;1.60;;
8100;SDS011;4093;53.470;9.832;2023-11-19T01:29:24;1.83;;;1.73;;
8100;SDS011;4093;53.470;9.832;2023-11-19T01:31:51;1.60;;;1.50;;
8100;SDS011;4093;53.470;9.832;2023-11-19T01:34:19;1.67;;;1.57;;
8100;SDS011;4093;53.470;9.832;2023-11-19T01:36:47;1.57;;;1.47;;
8100;SDS011;4093;53.470;9.832;2023-11-19T01:39:16;1.63;;;1.53;;
8100;SDS011;4093;53.470;9.832;2023-11-19T01:41:46;1.43;;;1.33;;
8100;SDS011;4093;53.470;9.832;2023-11-19T01:44:13;1.20;;;1.20;;
8100;SDS011;4093;53.470;9.832;2023-11-19T01:46:41;1.10;;;1.10;;
8100;SDS011;4093;53.470;9.832;2023-11-19T01:49:11;1.27;;;1.23;;
8100;SDS011;4093;53.470;9.832;2023-11-19T01:51:41;1.23;;;1.23;;
8100;SDS011;4093;53.470;9.832;2023-11-19T01:54:09;1.50;;;1.40;;
8100;SDS011;4093;53.470;9.832;2023-11-19T01:56:39;1.00;;;1.00;;
8100;SDS011;4093;53.470;9.832;2023-11-19T01:59:08;1.10;;;1.10;;
8100;SDS011;4093;53.470;9.832;2023-11-19T02:01:39;1.00;;;1.00;;
8100;SDS011;4093;53.470;9.832;2023-11-19T02:04:08;1.30;;;1.30;;
8100;SDS011;4093;53.470;9.832;2023-11-19T02:06:37;1.07;;;1.07;;
8100;SDS011;4093;53.470;9.832;2023-11-19T02:09:08;1.50;;;1.40;;
8100;SDS011;4093;53.470;9.832;2023-11-19T02:11:36;1.00;;;1.00;;
8100;SDS011;4093;53.470;9.832;2023-11-19T02:14:08;1.20;;;1.20;;
8100;SDS011;4093;53.470;9.832;2023-11-19T02:16:35;1.67;;;1.40;;
8100;SDS011;4093;53.470;9.832;2023-11-19T02:19:03;1.10;;;1.10;;
8100;SDS011;4093;53.470;9.832;2023-11-19T02:21:32;1.30;;;1.30;;
8100;SDS011;4093;53.470;9.832;2023-11-19T02:24:01;1.17;;;1.17;;
8100;SDS011;4093;53.470;9.832;2023-11-19T02:26:37;1.27;;;1.17;;
8100;SDS011;4093;53.470;9.832;2023-11-19T02:29:08;1.30;;;1.30;;
8100;SDS011;4093;53.470;9.832;2023-11-19T02:31:36;2.20;;;1.40;;
8100;SDS011;4093;53.470;9.832;2023-11-19T02:34:04;1.60;;;1.50;;
8100;SDS011;4093;53.470;9.832;2023-11-19T02:36:32;1.50;;;1.50;;
8100;SDS011;4093;53.470;9.832;2023-11-19T02:39:00;1.70;;;1.60;;
8100;SDS011;4093;53.470;9.832;2023-11-19T02:41:29;1.70;;;1.60;;
8100;SDS011;4093;53.470;9.832;2023-11-19T02:43:57;1.90;;;1.80;;
8100;SDS011;4093;53.470;9.832;2023-11-19T02:46:26;2.20;;;2.10;;
8100;SDS011;4093;53.470;9.832;2023-11-19T02:48:53;2.20;;;2.10;;
8100;SDS011;4093;53.470;9.832;2023-11-19T02:51:21;2.73;;;2.00;;
8100;SDS011;4093;53.470;9.832;2023-11-19T02:53:49;2.17;;;2.07;;
8100;SDS011;4093;53.470;9.832;2023-11-19T02:56:17;2.47;;;2.27;;
8100;SDS011;4093;53.470;9.832;2023-11-19T02:58:51;2.30;;;2.10;;
8100;SDS011;4093;53.470;9.832;2023-11-19T03:01:22;2.70;;;2.50;;
8100;SDS011;4093;53.470;9.832;2023-11-19T03:03:58;3.07;;;2.87;;
8100;SDS011;4093;53.470;9.832;2023-11-19T03:06:28;3.00;;;2.80;;
8100;SDS011;4093;53.470;9.832;2023-11-19T03:08:55;2.87;;;2.67;;
8100;SDS011;4093;53.470;9.832;2023-11-19T03:11:23;2.80;;;2.60;;
8100;SDS011;4093;53.470;9.832;2023-11-19T03:13:51;3.07;;;2.80;;
8100;SDS011;4093;53.470;9.832;2023-11-19T03:16:19;3.60;;;3.30;;
8100;SDS011;4093;53.470;9.832;2023-11-19T03:18:47;3.90;;;3.60;;
8100;SDS011;4093;53.470;9.832;2023-11-19T03:21:16;4.33;;;3.83;;
8100;SDS011;4093;53.470;9.832;2023-11-19T03:23:44;4.10;;;3.80;;
8100;SDS011;4093;53.470;9.832;2023-11-19T03:26:11;4.10;;;3.80;;
8100;SDS011;4093;53.470;9.832;2023-11-19T03:28:39;5.33;;;4.83;;
8100;SDS011;4093;53.470;9.832;2023-11-19T03:31:07;5.80;;;5.30;;
8100;SDS011;4093;53.470;9.832;2023-11-19T03:33:35;5.60;;;4.90;;
8100;SDS011;4093;53.470;9.832;2023-11-19T03:36:04;7.27;;;5.90;;
8100;SDS011;4093;53.470;9.832;2023-11-19T03:38:33;5.97;;;5.37;;
8100;SDS011;4093;53.470;9.832;2023-11-19T03:41:09;7.50;;;6.70;;
8100;SDS011;4093;53.470;9.832;2023-11-19T03:43:37;11.13;;;7.60;;
8100;SDS011;4093;53.470;9.832;2023-11-19T03:46:15;10.43;;;7.93;;
8100;SDS011;4093;53.470;9.832;2023-11-19T03:48:43;12.20;;;8.10;;
8100;SDS011;4093;53.470;9.832;2023-11-19T03:51:12;14.53;;;9.83;;
8100;SDS011;4093;53.470;9.832;2023-11-19T03:53:43;10.97;;;8.33;;
8100;SDS011;4093;53.470;9.832;2023-11-19T03:56:11;13.17;;;9.30;;
8100;SDS011;4093;53.470;9.832;2023-11-19T03:58:39;15.37;;;10.40;;
8100;SDS011;4093;53.470;9.832;2023-11-19T04:01:10;16.00;;;10.30;;
8100;SDS011;4093;53.470;9.832;2023-11-19T04:03:38;15.30;;;10.60;;
8100;SDS011;4093;53.470;9.832;2023-11-19T04:06:16;28.37;;;13.07;;
8100;SDS011;4093;53.470;9.832;2023-11-19T04:08:45;17.93;;;12.20;;
8100;SDS011;4093;53.470;9.832;2023-11-19T04:11:13;19.87;;;12.90;;
8100;SDS011;4093;53.470;9.832;2023-11-19T04:13:41;20.23;;;13.10;;
8100;SDS011;4093;53.470;9.832;2023-11-19T04:16:08;22.23;;;12.97;;
8100;SDS011;4093;53.470;9.832;2023-11-19T04:18:36;21.30;;;14.53;;
8100;SDS011;4093;53.470;9.832;2023-11-19T04:21:05;23.53;;;15.27;;
8100;SDS011;4093;53.470;9.832;2023-11-19T04:23:33;23.97;;;15.23;;
8100;SDS011;4093;53.470;9.832;2023-11-19T04:26:03;22.10;;;14.23;;
8100;SDS011;4093;53.470;9.832;2023-11-19T04:28:35;27.67;;;17.07;;
8100;SDS011;4093;53.470;9.832;2023-11-19T04:31:03;31.07;;;17.77;;
8100;SDS011;4093;53.470;9.832;2023-11-19T04:33:32;30.10;;;18.33;;
8100;SDS011;4093;53.470;9.832;2023-11-19T04:36:00;34.13;;;19.10;;
8100;SDS011;4093;53.470;9.832;2023-11-19T04:38:28;37.80;;;21.23;;
8100;SDS011;4093;53.470;9.832;2023-11-19T04:40:56;34.93;;;20.83;;
8100;SDS011;4093;53.470;9.832;2023-11-19T04:43:26;40.47;;;21.87;;
8100;SDS011;4093;53.470;9.832;2023-11-19T04:45:53;43.27;;;22.10;;
8100;SDS011;4093;53.470;9.832;2023-11-19T04:48:21;46.03;;;22.17;;
8100;SDS011;4093;53.470;9.832;2023-11-19T04:50:49;41.13;;;22.20;;
8100;SDS011;4093;53.470;9.832;2023-11-19T04:53:18;40.77;;;23.30;;
8100;SDS011;4093;53.470;9.832;2023-11-19T04:55:46;45.77;;;24.60;;
8100;SDS011;4093;53.470;9.832;2023-11-19T04:58:14;43.00;;;23.97;;
8100;SDS011;4093;53.470;9.832;2023-11-19T05:00:43;49.37;;;25.13;;
8100;SDS011;4093;53.470;9.832;2023-11-19T05:03:11;42.10;;;22.63;;
8100;SDS011;4093;53.470;9.832;2023-11-19T05:05:39;47.03;;;25.83;;
8100;SDS011;4093;53.470;9.832;2023-11-19T05:08:07;48.30;;;25.70;;
8100;SDS011;4093;53.470;9.832;2023-11-19T05:10:34;44.37;;;23.80;;
8100;SDS011;4093;53.470;9.832;2023-11-19T05:13:03;45.67;;;24.03;;
8100;SDS011;4093;53.470;9.832;2023-11-19T05:15:31;50.90;;;27.20;;
8100;SDS011;4093;53.470;9.832;2023-11-19T05:18:01;45.13;;;24.40;;
8100;SDS011;4093;53.470;9.832;2023-11-19T05:20:28;50.63;;;25.53;;
8100;SDS011;4093;53.470;9.832;2023-11-19T05:22:56;57.50;;;27.10;;
8100;SDS011;4093;53.470;9.832;2023-11-19T05:25:26;48.87;;;25.37;;
8100;SDS011;4093;53.470;9.832;2023-11-19T05:27:54;57.63;;;27.03;;
8100;SDS011;4093;53.470;9.832;2023-11-19T05:30:22;48.37;;;24.40;;
8100;SDS011;4093;53.470;9.832;2023-11-19T05:32:50;51.57;;;24.30;;
8100;SDS011;4093;53.470;9.832;2023-11-19T05:35:19;43.23;;;24.17;;
8100;SDS011;4093;53.470;9.832;2023-11-19T05:37:47;48.57;;;23.80;;
8100;SDS011;4093;53.470;9.832;2023-11-19T05:40:16;45.17;;;23.83;;
8100;SDS011;4093;53.470;9.832;2023-11-19T05:42:45;46.07;;;24.30;;
8100;SDS011;4093;53.470;9.832;2023-11-19T05:45:12;49.47;;;23.73;;
8100;SDS011;4093;53.470;9.832;2023-11-19T05:47:40;53.53;;;25.30;;
8100;SDS011;4093;53.470;9.832;2023-11-19T05:50:09;50.00;;;23.40;;
8100;SDS011;4093;53.470;9.832;2023-11-19T05:52:39;54.80;;;25.67;;
8100;SDS011;4093;53.470;9.832;2023-11-19T05:55:07;51.33;;;26.50;;
8100;SDS011;4093;53.470;9.832;2023-11-19T05:57:36;64.20;;;25.80;;
8100;SDS011;4093;53.470;9.832;2023-11-19T06:00:08;50.60;;;24.50;;
8100;SDS011;4093;53.470;9.832;2023-11-19T06:02:39;57.70;;;26.10;;
8100;SDS011;4093;53.470;9.832;2023-11-19T06:05:07;55.57;;;24.63;;
8100;SDS011;4093;53.470;9.832;2023-11-19T06:07:35;50.27;;;22.47;;
8100;SDS011;4093;53.470;9.832;2023-11-19T06:10:07;46.67;;;21.93;;
8100;SDS011;4093;53.470;9.832;2023-11-19T06:12:36;51.17;;;23.33;;
8100;SDS011;4093;53.470;9.832;2023-11-19T06:15:07;54.53;;;24.03;;
8100;SDS011;4093;53.470;9.832;2023-11-19T06:17:35;55.07;;;22.77;;
8100;SDS011;4093;53.470;9.832;2023-11-19T06:20:04;43.20;;;21.77;;
8100;SDS011;4093;53.470;9.832;2023-11-19T06:22:34;53.53;;;22.40;;
8100;SDS011;4093;53.470;9.832;2023-11-19T06:25:02;38.73;;;20.40;;
8100;SDS011;4093;53.470;9.832;2023-11-19T06:27:35;48.87;;;20.70;;
8100;SDS011;4093;53.470;9.832;2023-11-19T06:30:03;50.77;;;21.57;;
8100;SDS011;4093;53.470;9.832;2023-11-19T06:32:32;52.53;;;20.00;;
8100;SDS011;4093;53.470;9.832;2023-11-19T06:35:00;48.57;;;20.57;;
8100;SDS011;4093;53.470;9.832;2023-11-19T06:37:27;42.17;;;20.23;;
8100;SDS011;4093;53.470;9.832;2023-11-19T06:39:55;44.13;;;19.20;;
8100;SDS011;4093;53.470;9.832;2023-11-19T06:42:23;37.50;;;18.67;;
8100;SDS011;4093;53.470;9.832;2023-11-19T06:44:52;35.03;;;16.87;;
8100;SDS011;4093;53.470;9.832;2023-11-19T06:47:19;49.03;;;16.77;;
8100;SDS011;4093;53.470;9.832;2023-11-19T06:49:47;37.23;;;15.73;;
8100;SDS011;4093;53.470;9.832;2023-11-19T06:52:16;47.03;;;17.63;;
8100;SDS011;4093;53.470;9.832;2023-11-19T06:54:43;35.93;;;16.33;;
8100;SDS011;4093;53.470;9.832;2023-11-19T06:57:11;42.23;;;17.63;;
8100;SDS011;4093;53.470;9.832;2023-11-19T06:59:39;40.93;;;17.30;;
8100;SDS011;4093;53.470;9.832;2023-11-19T07:02:08;45.30;;;18.37;;
8100;SDS011;4093;53.470;9.832;2023-11-19T07:04:36;33.47;;;16.37;;
8100;SDS011;4093;53.470;9.832;2023-11-19T07:07:04;35.53;;;15.83;;
8100;SDS011;4093;53.470;9.832;2023-11-19T07:09:32;37.00;;;15.73;;
8100;SDS011;4093;53.470;9.832;2023-11-19T07:12:00;32.47;;;14.33;;
8100;SDS011;4093;53.470;9.832;2023-11-19T07:14:31;35.23;;;14.17;;
8100;SDS011;4093;53.470;9.832;2023-11-19T07:16:59;28.53;;;12.90;;
8100;SDS011;4093;53.470;9.832;2023-11-19T07:19:28;32.40;;;13.77;;
8100;SDS011;4093;53.470;9.832;2023-11-19T07:21:56;38.47;;;16.83;;
8100;SDS011;4093;53.470;9.832;2023-11-19T07:24:23;32.57;;;13.87;;
8100;SDS011;4093;53.470;9.832;2023-11-19T07:26:51;41.10;;;15.93;;
8100;SDS011;4093;53.470;9.832;2023-11-19T07:29:20;39.57;;;15.03;;
8100;SDS011;4093;53.470;9.832;2023-11-19T07:31:51;37.07;;;13.97;;
8100;SDS011;4093;53.470;9.832;2023-11-19T07:34:19;34.30;;;14.53;;
8100;SDS011;4093;53.470;9.832;2023-11-19T07:36:48;40.07;;;14.17;;
8100;SDS011;4093;53.470;9.832;2023-11-19T07:39:16;37.53;;;13.10;;
8100;SDS011;4093;53.470;9.832;2023-11-19T07:41:44;39.20;;;12.10;;
8100;SDS011;4093;53.470;9.832;2023-11-19T07:44:12;36.57;;;12.17;;
8100;SDS011;4093;53.470;9.832;2023-11-19T07:46:39;39.20;;;11.47;;
8100;SDS011;4093;53.470;9.832;2023-11-19T07:49:08;31.87;;;10.43;;
8100;SDS011;4093;53.470;9.832;2023-11-19T07:51:37;35.20;;;10.23;;
8100;SDS011;4093;53.470;9.832;2023-11-19T07:54:06;38.00;;;10.33;;
8100;SDS011;4093;53.470;9.832;2023-11-19T07:56:34;36.63;;;9.97;;
8100;SDS011;4093;53.470;9.832;2023-11-19T07:59:02;37.77;;;10.00;;
8100;SDS011;4093;53.470;9.832;2023-11-19T08:01:31;38.60;;;9.77;;
8100;SDS011;4093;53.470;9.832;2023-11-19T08:03:58;32.40;;;9.37;;
8100;SDS011;4093;53.470;9.832;2023-11-19T08:06:28;42.77;;;9.87;;
8100;SDS011;4093;53.470;9.832;2023-11-19T08:08:56;39.57;;;9.20;;
8100;SDS011;4093;53.470;9.832;2023-11-19T08:11:25;36.33;;;9.80;;
8100;SDS011;4093;53.470;9.832;2023-11-19T08:13:53;31.63;;;8.30;;
8100;SDS011;4093;53.470;9.832;2023-11-19T08:16:21;32.23;;;9.53;;
8100;SDS011;4093;53.470;9.832;2023-11-19T08:18:49;28.60;;;7.80;;
8100;SDS011;4093;53.470;9.832;2023-11-19T08:21:16;36.70;;;8.93;;
8100;SDS011;4093;53.470;9.832;2023-11-19T08:23:44;32.03;;;8.97;;
8100;SDS011;4093;53.470;9.832;2023-11-19T08:26:12;37.83;;;8.77;;
8100;SDS011;4093;53.470;9.832;2023-11-19T08:28:47;37.90;;;8.93;;
8100;SDS011;4093;53.470;9.832;2023-11-19T08:31:15;29.77;;;7.67;;
8100;SDS011;4093;53.470;9.832;2023-11-19T08:33:43;47.13;;;9.60;;
8100;SDS011;4093;53.470;9.832;2023-11-19T08:36:14;33.57;;;8.87;;
8100;SDS011;4093;53.470;9.832;2023-11-19T08:38:43;32.03;;;8.40;;
8100;SDS011;4093;53.470;9.832;2023-11-19T08:41:11;25.87;;;6.83;;
8100;SDS011;4093;53.470;9.832;2023-11-19T08:43:38;38.90;;;8.00;;
8100;SDS011;4093;53.470;9.832;2023-11-19T08:46:10;33.00;;;7.93;;
8100;SDS011;4093;53.470;9.832;2023-11-19T08:48:38;35.37;;;7.60;;
8100;SDS011;4093;53.470;9.832;2023-11-19T08:51:06;37.53;;;8.40;;
8100;SDS011;4093;53.470;9.832;2023-11-19T08:53:34;42.90;;;8.83;;
8100;SDS011;4093;53.470;9.832;2023-11-19T08:56:02;41.20;;;9.10;;
8100;SDS011;4093;53.470;9.832;2023-11-19T08:58:30;28.27;;;7.13;;
8100;SDS011;4093;53.470;9.832;2023-11-19T09:00:58;28.43;;;8.17;;
8100;SDS011;4093;53.470;9.832;2023-11-19T09:03:27;38.83;;;8.00;;
8100;SDS011;4093;53.470;9.832;2023-11-19T09:05:57;32.13;;;8.40;;
8100;SDS011;4093;53.470;9.832;2023-11-19T09:08:24;32.07;;;8.00;;
8100;SDS011;4093;53.470;9.832;2023-11-19T09:10:52;36.47;;;7.33;;
8100;SDS011;4093;53.470;9.832;2023-11-19T09:13:20;26.77;;;7.43;;
8100;SDS011;4093;53.470;9.832;2023-11-19T09:15:49;43.60;;;8.50;;
8100;SDS011;4093;53.470;9.832;2023-11-19T09:18:17;38.23;;;9.17;;
8100;SDS011;4093;53.470;9.832;2023-11-19T09:20:46;30.97;;;8.03;;
8100;SDS011;4093;53.470;9.832;2023-11-19T09:23:14;36.37;;;8.07;;
8100;SDS011;4093;53.470;9.832;2023-11-19T09:25:41;35.27;;;8.77;;
8100;SDS011;4093;53.470;9.832;2023-11-19T09:28:11;35.10;;;8.47;;
8100;SDS011;4093;53.470;9.832;2023-11-19T09:30:39;33.03;;;8.30;;
8100;SDS011;4093;53.470;9.832;2023-11-19T09:33:07;45.20;;;9.27;;
8100;SDS011;4093;53.470;9.832;2023-11-19T09:35:35;37.60;;;8.73;;
8100;SDS011;4093;53.470;9.832;2023-11-19T09:38:04;29.13;;;8.40;;
8100;SDS011;4093;53.470;9.832;2023-11-19T09:40:32;41.00;;;7.50;;
8100;SDS011;4093;53.470;9.832;2023-11-19T09:43:00;37.33;;;8.07;;
8100;SDS011;4093;53.470;9.832;2023-11-19T09:45:28;31.97;;;8.37;;
8100;SDS011;4093;53.470;9.832;2023-11-19T09:48:00;36.63;;;8.97;;
8100;SDS011;4093;53.470;9.832;2023-11-19T09:50:29;34.90;;;9.10;;
8100;SDS011;4093;53.470;9.832;2023-11-19T09:52:58;31.47;;;7.57;;
8100;SDS011;4093;53.470;9.832;2023-11-19T09:55:27;36.37;;;7.60;;
8100;SDS011;4093;53.470;9.832;2023-11-19T09:57:55;44.27;;;7.77;;
8100;SDS011;4093;53.470;9.832;2023-11-19T10:00:26;29.00;;;7.30;;
8100;SDS011;4093;53.470;9.832;2023-11-19T10:02:54;29.03;;;7.60;;
8100;SDS011;4093;53.470;9.832;2023-11-19T10:05:24;38.53;;;7.43;;
8100;SDS011;4093;53.470;9.832;2023-11-19T10:07:52;31.83;;;7.13;;
8100;SDS011;4093;53.470;9.832;2023-11-19T10:10:21;35.13;;;7.40;;
8100;SDS011;4093;53.470;9.832;2023-11-19T10:12:51;28.73;;;8.30;;
8100;SDS011;4093;53.470;9.832;2023-11-19T10:15:22;41.83;;;7.83;;
8100;SDS011;4093;53.470;9.832;2023-11-19T10:17:54;31.57;;;7.50;;
8100;SDS011;4093;53.470;9.832;2023-11-19T10:20:22;31.57;;;8.10;;
8100;SDS011;4093;53.470;9.832;2023-11-19T10:22:52;34.63;;;8.77;;
8100;SDS011;4093;53.470;9.832;2023-11-19T10:25:24;35.23;;;8.67;;
8100;SDS011;4093;53.470;9.832;2023-11-19T10:27:54;33.50;;;7.53;;
8100;SDS011;4093;53.470;9.832;2023-11-19T10:30:24;33.90;;;7.97;;
8100;SDS011;4093;53.470;9.832;2023-11-19T10:33:05;40.47;;;8.63;;
8100;SDS011;4093;53.470;9.832;2023-11-19T10:35:34;30.47;;;7.73;;
8100;SDS011;4093;53.470;9.832;2023-11-19T10:38:12;37.73;;;8.00;;
8100;SDS011;4093;53.470;9.832;2023-11-19T10:40:41;34.70;;;7.97;;
8100;SDS011;4093;53.470;9.832;2023-11-19T10:43:11;29.17;;;7.93;;
8100;SDS011;4093;53.470;9.832;2023-11-19T10:45:39;36.03;;;8.33;;
8100;SDS011;4093;53.470;9.832;2023-11-19T10:48:07;29.63;;;7.50;;
8100;SDS011;4093;53.470;9.832;2023-11-19T10:50:36;30.10;;;7.07;;
8100;SDS011;4093;53.470;9.832;2023-11-19T10:53:05;29.97;;;7.07;;
8100;SDS011;4093;53.470;9.832;2023-11-19T10:55:35;36.40;;;7.60;;
8100;SDS011;4093;53.470;9.832;2023-11-19T10:58:05;29.87;;;7.87;;
8100;SDS011;4093;53.470;9.832;2023-11-19T11:00:37;25.37;;;7.10;;
8100;SDS011;4093;53.470;9.832;2023-11-19T11:03:08;33.20;;;6.93;;
8100;SDS011;4093;53.470;9.832;2023-11-19T11:05:42;30.43;;;6.83;;
8100;SDS011;4093;53.470;9.832;2023-11-19T11:08:10;33.67;;;7.67;;
8100;SDS011;4093;53.470;9.832;2023-11-19T11:10:39;33.20;;;7.07;;
8100;SDS011;4093;53.470;9.832;2023-11-19T11:13:14;35.80;;;7.93;;
8100;SDS011;4093;53.470;9.832;2023-11-19T11:15:43;30.50;;;7.03;;
8100;SDS011;4093;53.470;9.832;2023-11-19T11:18:13;35.60;;;7.17;;
8100;SDS011;4093;53.470;9.832;2023-11-19T11:20:41;38.30;;;7.93;;
8100;SDS011;4093;53.470;9.832;2023-11-19T11:26:17;33.00;;;7.80;;
8100;SDS011;4093;53.470;9.832;2023-11-19T11:28:58;37.30;;;7.43;;
8100;SDS011;4093;53.470;9.832;2023-11-19T11:31:35;36.20;;;7.47;;
8100;SDS011;4093;53.470;9.832;2023-11-19T11:34:19;34.17;;;7.17;;
8100;SDS011;4093;53.470;9.832;2023-11-19T11:37:03;32.10;;;7.33;;
8100;SDS011;4093;53.470;9.832;2023-11-19T11:39:40;35.13;;;7.87;;
8100;SDS011;4093;53.470;9.832;2023-11-19T11:44:58;40.43;;;8.27;;
8100;SDS011;4093;53.470;9.832;2023-11-19T11:50:48;34.63;;;8.07;;
8100;SDS011;4093;53.470;9.832;2023-11-19T11:53:18;32.53;;;7.97;;
8100;SDS011;4093;53.470;9.832;2023-11-19T11:55:53;35.47;;;8.13;;
8100;SDS011;4093;53.470;9.832;2023-11-19T11:58:26;35.47;;;8.67;;
8100;SDS011;4093;53.470;9.832;2023-11-19T12:01:04;31.40;;;7.53;;
8100;SDS011;4093;53.470;9.832;2023-11-19T12:03:37;30.33;;;7.80;;
8100;SDS011;4093;53.470;9.832;2023-11-19T12:06:05;35.13;;;8.10;;
8100;SDS011;4093;53.470;9.832;2023-11-19T12:08:34;31.10;;;7.13;;
8100;SDS011;4093;53.470;9.832;2023-11-19T12:11:19;40.30;;;8.10;;
8100;SDS011;4093;53.470;9.832;2023-11-19T12:13:52;35.90;;;7.10;;
8100;SDS011;4093;53.470;9.832;2023-11-19T12:16:21;36.27;;;6.60;;
8100;SDS011;4093;53.470;9.832;2023-11-19T12:18:50;32.60;;;8.83;;
8100;SDS011;4093;53.470;9.832;2023-11-19T12:21:29;25.33;;;6.83;;
8100;SDS011;4093;53.470;9.832;2023-11-19T12:23:59;30.97;;;7.67;;
8100;SDS011;4093;53.470;9.832;2023-11-19T12:26:34;23.30;;;5.70;;
8100;SDS011;4093;53.470;9.832;2023-11-19T12:29:02;32.10;;;6.77;;
8100;SDS011;4093;53.470;9.832;2023-11-19T12:31:35;29.97;;;7.03;;
8100;SDS011;4093;53.470;9.832;2023-11-19T12:34:08;29.43;;;7.30;;
8100;SDS011;4093;53.470;9.832;2023-11-19T12:36:39;30.50;;;6.80;;
8100;SDS011;4093;53.470;9.832;2023-11-19T12:39:09;30.87;;;7.57;;
8100;SDS011;4093;53.470;9.832;2023-11-19T12:41:48;29.93;;;7.30;;
8100;SDS011;4093;53.470;9.832;2023-11-19T12:44:17;26.97;;;7.53;;
8100;SDS011;4093;53.470;9.832;2023-11-19T12:46:45;31.50;;;7.47;;
8100;SDS011;4093;53.470;9.832;2023-11-19T12:49:14;31.37;;;6.73;;
8100;SDS011;4093;53.470;9.832;2023-11-19T12:51:41;31.40;;;7.20;;
8100;SDS011;4093;53.470;9.832;2023-11-19T12:54:09;28.13;;;6.50;;
8100;SDS011;4093;53.470;9.832;2023-11-19T12:56:38;30.90;;;6.83;;
8100;SDS011;4093;53.470;9.832;2023-11-19T12:59:11;23.50;;;6.07;;
8100;SDS011;4093;53.470;9.832;2023-11-19T13:01:39;25.73;;;5.73;;
8100;SDS011;4093;53.470;9.832;2023-11-19T13:04:18;27.17;;;6.70;;
8100;SDS011;4093;53.470;9.832;2023-11-19T13:06:46;27.90;;;6.53;;
8100;SDS011;4093;53.470;9.832;2023-11-19T13:09:30;31.80;;;6.73;;
8100;SDS011;4093;53.470;9.832;2023-11-19T13:11:58;28.93;;;7.33;;
8100;SDS011;4093;53.470;9.832;2023-11-19T13:14:35;28.00;;;7.00;;
8100;SDS011;4093;53.470;9.832;2023-11-19T13:17:04;29.63;;;6.90;;
8100;SDS011;4093;53.470;9.832;2023-11-19T13:19:33;24.63;;;7.03;;
8100;SDS011;4093;53.470;9.832;2023-11-19T13:22:01;29.50;;;8.07;;
8100;SDS011;4093;53.470;9.832;2023-11-19T13:24:29;28.77;;;7.17;;
8100;SDS011;4093;53.470;9.832;2023-11-19T13:26:57;32.03;;;7.57;;
8100;SDS011;4093;53.470;9.832;2023-11-19T13:29:24;27.57;;;7.27;;
8100;SDS011;4093;53.470;9.832;2023-11-19T13:31:55;25.37;;;7.17;;
8100;SDS011;4093;53.470;9.832;2023-11-19T13:34:24;23.87;;;6.63;;
8100;SDS011;4093;53.470;9.832;2023-11-19T13:36:53;30.57;;;7.93;;
8100;SDS011;4093;53.470;9.832;2023-11-19T13:39:23;20.20;;;6.13;;
8100;SDS011;4093;53.470;9.832;2023-11-19T13:41:50;27.70;;;6.93;;
8100;SDS011;4093;53.470;9.832;2023-11-19T13:44:18;24.40;;;6.57;;
8100;SDS011;4093;53.470;9.832;2023-11-19T13:46:46;31.40;;;7.00;;
8100;SDS011;4093;53.470;9.832;2023-11-19T13:49:14;30.87;;;6.63;;
8100;SDS011;4093;53.470;9.832;2023-11-19T13:51:41;24.13;;;6.60;;
8100;SDS011;4093;53.470;9.832;2023-11-19T13:54:11;29.07;;;7.10;;
8100;SDS011;4093;53.470;9.832;2023-11-19T13:56:40;30.63;;;6.57;;
8100;SDS011;4093;53.470;9.832;2023-11-19T13:59:10;31.80;;;7.23;;
8100;SDS011;4093;53.470;9.832;2023-11-19T14:01:38;29.13;;;6.73;;
8100;SDS011;4093;53.470;9.832;2023-11-19T14:04:06;27.33;;;6.57;;
8100;SDS011;4093;53.470;9.832;2023-11-19T14:06:35;31.17;;;7.47;;
8100;SDS011;4093;53.470;9.832;2023-11-19T14:09:03;18.57;;;5.63;;
8100;SDS011;4093;53.470;9.832;2023-11-19T14:11:33;25.83;;;6.07;;
8100;SDS011;4093;53.470;9.832;2023-11-19T14:14:01;23.60;;;5.67;;
8100;SDS011;4093;53.470;9.832;2023-11-19T14:16:29;22.40;;;6.77;;
8100;SDS011;4093;53.470;9.832;2023-11-19T14:18:58;17.90;;;5.33;;
8100;SDS011;4093;53.470;9.832;2023-11-19T14:21:26;25.10;;;6.10;;
8100;SDS011;4093;53.470;9.832;2023-11-19T14:23:54;19.07;;;6.30;;
8100;SDS011;4093;53.470;9.832;2023-11-19T14:26:22;21.90;;;5.70;;
8100;SDS011;4093;53.470;9.832;2023-11-19T14:28:51;20.53;;;5.77;;
8100;SDS011;4093;53.470;9.832;2023-11-19T14:31:21;35.13;;;6.47;;
8100;SDS011;4093;53.470;9.832;2023-11-19T14:33:49;27.33;;;6.10;;
8100;SDS011;4093;53.470;9.832;2023-11-19T14:36:17;22.37;;;5.57;;
8100;SDS011;4093;53.470;9.832;2023-11-19T14:38:45;23.87;;;5.93;;
8100;SDS011;4093;53.470;9.832;2023-11-19T14:41:12;21.40;;;6.37;;
8100;SDS011;4093;53.470;9.832;2023-11-19T14:43:40;19.80;;;5.10;;
8100;SDS011;4093;53.470;9.832;2023-11-19T14:46:09;24.53;;;6.17;;
8100;SDS011;4093;53.470;9.832;2023-11-19T14:48:37;19.63;;;5.30;;
8100;SDS011;4093;53.470;9.832;2023-11-19T14:51:05;22.83;;;5.77;;
8100;SDS011;4093;53.470;9.832;2023-11-19T14:53:33;27.00;;;6.23;;
8100;SDS011;4093;53.470;9.832;2023-11-19T14:56:01;25.97;;;5.93;;
8100;SDS011;4093;53.470;9.832;2023-11-19T14:58:28;24.50;;;6.43;;
8100;SDS011;4093;53.470;9.832;2023-11-19T15:00:56;20.17;;;5.87;;
8100;SDS011;4093;53.470;9.832;2023-11-19T15:03:25;18.87;;;6.17;;
8100;SDS011;4093;53.470;9.832;2023-11-19T15:05:53;22.97;;;6.13;;
8100;SDS011;4093;53.470;9.832;2023-11-19T15:08:21;24.30;;;6.30;;
8100;SDS011;4093;53.470;9.832;2023-11-19T15:10:48;20.47;;;4.93;;
8100;SDS011;4093;53.470;9.832;2023-11-19T15:13:16;20.60;;;5.93;;
8100;SDS011;4093;53.470;9.832;2023-11-19T15:15:44;23.67;;;5.80;;
8100;SDS011;4093;53.470;9.832;2023-11-19T15:18:12;26.47;;;6.50;;
8100;SDS011;4093;53.470;9.832;2023-11-19T15:20:44;19.87;;;5.17;;
8100;SDS011;4093;53.470;9.832;2023-11-19T15:23:13;18.37;;;5.37;;